sensor_id;sensor_type;location;lat;lon;timestamp;pressure;altitude;pressure_sealevel;temperature;humidity
5780;BME280;2916;49.798;10.022;2023-06-26T00:01:11;149051.66;;;19.41;73.17
5780;BME280;2916;49.798;10.022;2023-06-26T00:03:38;149052.94;;;19.42;73.27
5780;BME280;2916;49.798;10.022;2023-06-26T00:06:06;148979.28;;;19.11;72.93
5780;BME280;2916;49.798;10.022;2023-06-26T00:08:33;149032.91;;;19.33;73.51
5780;BME280;2916;49.798;10.022;2023-06-26T00:11:00;149021.69;;;19.29;73.69
5780;BME280;2916;49.798;10.022;2023-06-26T00:13:28;149010.47;;;19.24;74.21
5780;BME280;2916;49.798;10.022;2023-06-26T00:15:55;148946.84;;;18.98;75.45
5780;BME280;2916;49.798;10.022;2023-06-26T00:18:23;148956.84;;;19.02;76.12
5780;BME280;2916;49.798;10.022;2023-06-26T00:20:50;148938.13;;;18.95;77.33
5780;BME280;2916;49.798;10.022;2023-06-26T00:23:17;148924.34;;;18.89;76.67
5780;BME280;2916;49.798;10.022;2023-06-26T00:25:45;148850.72;;;18.59;76.94
5780;BME280;2916;49.798;10.022;2023-06-26T00:28:12;148926.84;;;18.90;76.04
5780;BME280;2916;49.798;10.022;2023-06-26T00:30:40;148919.41;;;18.87;76.16
5780;BME280;2916;49.798;10.022;2023-06-26T00:33:08;148904.41;;;18.81;75.14
5780;BME280;2916;49.798;10.022;2023-06-26T00:35:35;148925.59;;;18.89;75.33
5780;BME280;2916;49.798;10.022;2023-06-26T00:38:02;148933.09;;;18.93;77.34
5780;BME280;2916;49.798;10.022;2023-06-26T00:40:29;148906.88;;;18.82;76.46
5780;BME280;2916;49.798;10.022;2023-06-26T00:42:56;148886.94;;;18.74;76.57
5780;BME280;2916;49.798;10.022;2023-06-26T00:45:24;148878.19;;;18.70;77.69
5780;BME280;2916;49.798;10.022;2023-06-26T00:47:52;148838.22;;;18.54;78.40
5780;BME280;2916;49.798;10.022;2023-06-26T00:50:21;148814.53;;;18.44;78.52
5780;BME280;2916;49.798;10.022;2023-06-26T00:52:48;148794.59;;;18.36;78.93
5780;BME280;2916;49.798;10.022;2023-06-26T00:55:16;148804.56;;;18.40;78.77
5780;BME280;2916;49.798;10.022;2023-06-26T00:57:44;148805.81;;;18.40;78.67
5780;BME280;2916;49.798;10.022;2023-06-26T01:00:13;148809.53;;;18.42;78.66
5780;BME280;2916;49.798;10.022;2023-06-26T01:02:41;148800.78;;;18.38;77.29
5780;BME280;2916;49.798;10.022;2023-06-26T01:05:10;148812.06;;;18.43;77.79
5780;BME280;2916;49.798;10.022;2023-06-26T01:07:40;148804.56;;;18.40;78.84
5780;BME280;2916;49.798;10.022;2023-06-26T01:10:08;148795.84;;;18.36;80.04
5780;BME280;2916;49.798;10.022;2023-06-26T01:12:36;148812.06;;;18.43;81.23
5780;BME280;2916;49.798;10.022;2023-06-26T01:15:05;148797.06;;;18.37;81.57
5780;BME280;2916;49.798;10.022;2023-06-26T01:17:33;148782.09;;;18.31;81.29
5780;BME280;2916;49.798;10.022;2023-06-26T01:20:05;148744.66;;;18.15;80.13
5780;BME280;2916;49.798;10.022;2023-06-26T01:22:47;148747.19;;;18.17;80.19
5780;BME280;2916;49.798;10.022;2023-06-26T01:25:26;148718.50;;;18.05;81.40
5780;BME280;2916;49.798;10.022;2023-06-26T01:27:59;148709.78;;;18.01;81.05
5780;BME280;2916;49.798;10.022;2023-06-26T01:30:27;148720.97;;;18.06;79.90
5780;BME280;2916;49.798;10.022;2023-06-26T01:32:55;148699.78;;;17.97;80.89
5780;BME280;2916;49.798;10.022;2023-06-26T01:35:22;148694.78;;;17.95;79.85
5780;BME280;2916;49.798;10.022;2023-06-26T01:37:50;148682.31;;;17.90;80.16
5780;BME280;2916;49.798;10.022;2023-06-26T01:40:18;148684.81;;;17.91;79.95
5780;BME280;2916;49.798;10.022;2023-06-26T01:42:45;148669.88;;;17.85;81.08
5780;BME280;2916;49.798;10.022;2023-06-26T01:45:24;148644.91;;;17.75;82.19
5780;BME280;2916;49.798;10.022;2023-06-26T01:47:57;148641.16;;;17.73;81.77
5780;BME280;2916;49.798;10.022;2023-06-26T01:50:30;148622.44;;;17.65;82.49
5780;BME280;2916;49.798;10.022;2023-06-26T01:53:06;148604.97;;;17.58;81.87
5780;BME280;2916;49.798;10.022;2023-06-26T01:55:47;148624.91;;;17.66;79.93
5780;BME280;2916;49.798;10.022;2023-06-26T01:58:23;148634.91;;;17.71;80.10
5780;BME280;2916;49.798;10.022;2023-06-26T02:00:53;148621.19;;;17.65;81.48
5780;BME280;2916;49.798;10.022;2023-06-26T02:03:20;148590.00;;;17.52;82.66
5780;BME280;2916;49.798;10.022;2023-06-26T02:05:50;148577.53;;;17.47;82.40
5780;BME280;2916;49.798;10.022;2023-06-26T02:08:17;148572.59;;;17.45;81.58
5780;BME280;2916;49.798;10.022;2023-06-26T02:10:44;148506.50;;;17.18;83.27
5780;BME280;2916;49.798;10.022;2023-06-26T02:13:12;148567.56;;;17.43;85.40
5780;BME280;2916;49.798;10.022;2023-06-26T02:15:39;148572.59;;;17.45;83.42
5780;BME280;2916;49.798;10.022;2023-06-26T02:18:08;148555.13;;;17.38;81.81
5780;BME280;2916;49.798;10.022;2023-06-26T02:20:36;148553.88;;;17.37;81.48
5780;BME280;2916;49.798;10.022;2023-06-26T02:23:03;148542.63;;;17.33;81.67
5780;BME280;2916;49.798;10.022;2023-06-26T02:25:30;148522.69;;;17.25;83.60
5780;BME280;2916;49.798;10.022;2023-06-26T02:27:57;148521.44;;;17.24;82.64
5780;BME280;2916;49.798;10.022;2023-06-26T02:30:24;148502.75;;;17.16;81.84
5780;BME280;2916;49.798;10.022;2023-06-26T02:32:51;148507.75;;;17.18;82.98
5780;BME280;2916;49.798;10.022;2023-06-26T02:35:20;148505.28;;;17.17;83.13
5780;BME280;2916;49.798;10.022;2023-06-26T02:37:47;148474.06;;;17.05;83.69
5780;BME280;2916;49.798;10.022;2023-06-26T02:40:14;148477.84;;;17.06;84.22
5780;BME280;2916;49.798;10.022;2023-06-26T02:42:42;148462.88;;;17.00;83.60
5780;BME280;2916;49.798;10.022;2023-06-26T02:45:09;148472.81;;;17.04;84.02
5780;BME280;2916;49.798;10.022;2023-06-26T02:47:37;148430.47;;;16.87;84.29
5780;BME280;2916;49.798;10.022;2023-06-26T02:50:06;148432.97;;;16.88;84.40
5780;BME280;2916;49.798;10.022;2023-06-26T02:52:34;148426.72;;;16.85;85.27
5780;BME280;2916;49.798;10.022;2023-06-26T02:55:02;148400.56;;;16.75;84.22
5780;BME280;2916;49.798;10.022;2023-06-26T02:57:29;148430.47;;;16.87;85.40
5780;BME280;2916;49.798;10.022;2023-06-26T02:59:56;148425.47;;;16.85;85.36
5780;BME280;2916;49.798;10.022;2023-06-26T03:02:23;148405.53;;;16.77;85.58
5780;BME280;2916;49.798;10.022;2023-06-26T03:04:50;148415.50;;;16.81;84.81
5780;BME280;2916;49.798;10.022;2023-06-26T03:07:18;148401.81;;;16.75;86.30
5780;BME280;2916;49.798;10.022;2023-06-26T03:09:47;148403.06;;;16.76;85.84
5780;BME280;2916;49.798;10.022;2023-06-26T03:12:14;148398.06;;;16.74;85.84
5780;BME280;2916;49.798;10.022;2023-06-26T03:14:41;148376.84;;;16.65;85.98
5780;BME280;2916;49.798;10.022;2023-06-26T03:17:08;148363.13;;;16.59;87.18
5780;BME280;2916;49.798;10.022;2023-06-26T03:19:36;148369.34;;;16.62;87.83
5780;BME280;2916;49.798;10.022;2023-06-26T03:22:03;148356.91;;;16.57;87.44
5780;BME280;2916;49.798;10.022;2023-06-26T03:24:31;148359.38;;;16.58;90.35
5780;BME280;2916;49.798;10.022;2023-06-26T03:27:01;148341.97;;;16.51;89.19
5780;BME280;2916;49.798;10.022;2023-06-26T03:29:28;148322.00;;;16.42;87.43
5780;BME280;2916;49.798;10.022;2023-06-26T03:31:56;148233.56;;;16.06;88.84
5780;BME280;2916;49.798;10.022;2023-06-26T03:34:23;148354.41;;;16.56;88.15
5780;BME280;2916;49.798;10.022;2023-06-26T03:36:51;148355.66;;;16.56;87.98
5780;BME280;2916;49.798;10.022;2023-06-26T03:39:18;148349.41;;;16.54;88.65
5780;BME280;2916;49.798;10.022;2023-06-26T03:41:45;148340.69;;;16.50;89.01
5780;BME280;2916;49.798;10.022;2023-06-26T03:44:13;148330.72;;;16.46;88.86
5780;BME280;2916;49.798;10.022;2023-06-26T03:46:41;148340.69;;;16.50;88.89
5780;BME280;2916;49.798;10.022;2023-06-26T03:49:08;148323.28;;;16.43;91.87
5780;BME280;2916;49.798;10.022;2023-06-26T03:51:36;148325.75;;;16.44;91.16
5780;BME280;2916;49.798;10.022;2023-06-26T03:54:03;148323.28;;;16.43;90.15
5780;BME280;2916;49.798;10.022;2023-06-26T03:56:31;148335.72;;;16.48;89.57
5780;BME280;2916;49.798;10.022;2023-06-26T03:58:58;148340.69;;;16.50;90.66
5780;BME280;2916;49.798;10.022;2023-06-26T04:01:27;148335.72;;;16.48;90.70
5780;BME280;2916;49.798;10.022;2023-06-26T04:03:54;148349.41;;;16.54;89.06
5780;BME280;2916;49.798;10.022;2023-06-26T04:06:21;148351.94;;;16.55;89.32
5780;BME280;2916;49.798;10.022;2023-06-26T04:08:48;148351.94;;;16.55;87.92
5780;BME280;2916;49.798;10.022;2023-06-26T04:11:16;148361.91;;;16.59;88.84
5780;BME280;2916;49.798;10.022;2023-06-26T04:13:43;148368.09;;;16.61;89.53
5780;BME280;2916;49.798;10.022;2023-06-26T04:16:10;148389.28;;;16.70;89.57
5780;BME280;2916;49.798;10.022;2023-06-26T04:18:39;148434.19;;;16.88;89.01
5780;BME280;2916;49.798;10.022;2023-06-26T04:21:09;148447.94;;;16.94;88.98
5780;BME280;2916;49.798;10.022;2023-06-26T04:23:38;148474.06;;;17.05;88.11
5780;BME280;2916;49.798;10.022;2023-06-26T04:26:06;148578.78;;;17.48;87.29
5780;BME280;2916;49.798;10.022;2023-06-26T04:28:34;148629.94;;;17.69;87.47
5780;BME280;2916;49.798;10.022;2023-06-26T04:31:02;148644.91;;;17.75;85.43
5780;BME280;2916;49.798;10.022;2023-06-26T04:33:30;148597.47;;;17.55;83.52
5780;BME280;2916;49.798;10.022;2023-06-26T04:35:59;148659.91;;;17.81;84.15
5780;BME280;2916;49.798;10.022;2023-06-26T04:38:29;148729.72;;;18.09;84.42
5780;BME280;2916;49.798;10.022;2023-06-26T04:40:56;148789.56;;;18.34;82.41
5780;BME280;2916;49.798;10.022;2023-06-26T04:43:23;148793.34;;;18.35;81.67
5780;BME280;2916;49.798;10.022;2023-06-26T04:45:50;148763.38;;;18.23;81.94
5780;BME280;2916;49.798;10.022;2023-06-26T04:48:18;148747.19;;;18.17;82.69
5780;BME280;2916;49.798;10.022;2023-06-26T04:50:46;148706.00;;;18.00;82.33
5780;BME280;2916;49.798;10.022;2023-06-26T04:53:20;148797.06;;;18.37;82.07
5780;BME280;2916;49.798;10.022;2023-06-26T04:55:47;148871.94;;;18.68;82.19
5780;BME280;2916;49.798;10.022;2023-06-26T04:58:14;149008.00;;;19.23;80.85
5780;BME280;2916;49.798;10.022;2023-06-26T05:00:42;149164.06;;;19.87;79.25
5780;BME280;2916;49.798;10.022;2023-06-26T05:03:09;149316.47;;;20.49;77.07
5780;BME280;2916;49.798;10.022;2023-06-26T05:05:36;149478.88;;;21.16;75.90
5780;BME280;2916;49.798;10.022;2023-06-26T05:08:20;149636.38;;;21.80;74.95
5780;BME280;2916;49.798;10.022;2023-06-26T05:10:48;149792.69;;;22.44;72.37
5780;BME280;2916;49.798;10.022;2023-06-26T05:13:15;149929.09;;;22.99;70.86
5780;BME280;2916;49.798;10.022;2023-06-26T05:15:45;150109.25;;;23.73;68.32
5780;BME280;2916;49.798;10.022;2023-06-26T05:18:12;150180.63;;;24.02;66.02
5780;BME280;2916;49.798;10.022;2023-06-26T05:20:41;150239.44;;;24.26;64.90
5780;BME280;2916;49.798;10.022;2023-06-26T05:23:10;150328.34;;;24.62;63.37
5780;BME280;2916;49.798;10.022;2023-06-26T05:25:40;150369.66;;;24.79;62.04
5780;BME280;2916;49.798;10.022;2023-06-26T05:28:09;150472.41;;;25.21;60.93
5780;BME280;2916;49.798;10.022;2023-06-26T05:30:38;150491.19;;;25.29;59.77
5780;BME280;2916;49.798;10.022;2023-06-26T05:33:06;150625.28;;;25.83;60.10
5780;BME280;2916;49.798;10.022;2023-06-26T05:35:37;150758.09;;;26.37;58.00
5780;BME280;2916;49.798;10.022;2023-06-26T05:38:04;150820.78;;;26.63;56.75
5780;BME280;2916;49.798;10.022;2023-06-26T05:40:32;150859.63;;;26.79;56.01
5780;BME280;2916;49.798;10.022;2023-06-26T05:43:02;150931.13;;;27.08;55.91
5780;BME280;2916;49.798;10.022;2023-06-26T05:45:30;150928.59;;;27.07;56.51
5780;BME280;2916;49.798;10.022;2023-06-26T05:47:57;151096.72;;;27.75;54.33
5780;BME280;2916;49.798;10.022;2023-06-26T05:50:27;151187.00;;;28.12;53.05
5780;BME280;2916;49.798;10.022;2023-06-26T05:52:55;150502.47;;;25.33;56.25
5780;BME280;2916;49.798;10.022;2023-06-26T05:55:24;150943.69;;;27.13;52.23
5780;BME280;2916;49.798;10.022;2023-06-26T05:57:52;151091.63;;;27.73;51.29
5780;BME280;2916;49.798;10.022;2023-06-26T06:00:23;151141.84;;;27.94;50.97
5780;BME280;2916;49.798;10.022;2023-06-26T06:02:52;151164.44;;;28.03;50.07
5780;BME280;2916;49.798;10.022;2023-06-26T06:05:20;151164.44;;;28.03;49.31
5780;BME280;2916;49.798;10.022;2023-06-26T06:07:47;150971.28;;;27.24;51.26
5780;BME280;2916;49.798;10.022;2023-06-26T06:10:14;150740.53;;;26.30;52.55
5780;BME280;2916;49.798;10.022;2023-06-26T06:12:42;150978.75;;;27.27;49.71
5780;BME280;2916;49.798;10.022;2023-06-26T06:15:09;150993.84;;;27.33;50.19
5780;BME280;2916;49.798;10.022;2023-06-26T06:17:38;151219.59;;;28.25;49.38
5780;BME280;2916;49.798;10.022;2023-06-26T06:20:05;151279.91;;;28.50;48.59
5780;BME280;2916;49.798;10.022;2023-06-26T06:22:33;151209.56;;;28.21;48.16
5780;BME280;2916;49.798;10.022;2023-06-26T06:25:00;151523.38;;;29.49;46.20
5780;BME280;2916;49.798;10.022;2023-06-26T06:27:27;151391.53;;;28.95;46.86
5780;BME280;2916;49.798;10.022;2023-06-26T06:29:54;151392.78;;;28.96;45.75
5780;BME280;2916;49.798;10.022;2023-06-26T06:32:22;151453.13;;;29.20;45.00
5780;BME280;2916;49.798;10.022;2023-06-26T06:34:50;151278.66;;;28.49;46.59
5780;BME280;2916;49.798;10.022;2023-06-26T06:37:17;151591.22;;;29.76;44.79
5780;BME280;2916;49.798;10.022;2023-06-26T06:39:44;151860.03;;;30.86;42.96
5780;BME280;2916;49.798;10.022;2023-06-26T06:42:11;151827.31;;;30.72;43.01
5780;BME280;2916;49.798;10.022;2023-06-26T06:44:39;151714.31;;;30.26;41.90
5780;BME280;2916;49.798;10.022;2023-06-26T06:47:06;151540.97;;;29.56;43.57
5780;BME280;2916;49.798;10.022;2023-06-26T06:49:33;151785.88;;;30.55;42.74
5780;BME280;2916;49.798;10.022;2023-06-26T06:52:02;151697.97;;;30.20;41.93
5780;BME280;2916;49.798;10.022;2023-06-26T06:54:29;151716.81;;;30.27;42.88
5780;BME280;2916;49.798;10.022;2023-06-26T06:56:56;151716.81;;;30.27;42.62
5780;BME280;2916;49.798;10.022;2023-06-26T06:59:24;151603.75;;;29.81;42.66
5780;BME280;2916;49.798;10.022;2023-06-26T07:01:51;151508.31;;;29.43;44.72
5780;BME280;2916;49.798;10.022;2023-06-26T07:04:18;151767.03;;;30.48;41.54
5780;BME280;2916;49.798;10.022;2023-06-26T07:06:45;151593.72;;;29.77;41.40
5780;BME280;2916;49.798;10.022;2023-06-26T07:09:13;151421.69;;;29.07;41.87
5780;BME280;2916;49.798;10.022;2023-06-26T07:11:41;151489.47;;;29.35;42.79
5780;BME280;2916;49.798;10.022;2023-06-26T07:14:08;151189.50;;;28.13;44.41
5780;BME280;2916;49.798;10.022;2023-06-26T07:16:35;151926.63;;;31.13;42.06
5780;BME280;2916;49.798;10.022;2023-06-26T07:19:02;151808.47;;;30.65;40.72
5780;BME280;2916;49.798;10.022;2023-06-26T07:21:29;151557.28;;;29.63;43.63
5780;BME280;2916;49.798;10.022;2023-06-26T07:23:57;151966.81;;;31.29;42.25
5780;BME280;2916;49.798;10.022;2023-06-26T07:26:25;152196.81;;;32.22;40.44
5780;BME280;2916;49.798;10.022;2023-06-26T07:28:52;152307.50;;;32.67;38.84
5780;BME280;2916;49.798;10.022;2023-06-26T07:31:20;152218.22;;;32.31;39.60
5780;BME280;2916;49.798;10.022;2023-06-26T07:33:47;152068.59;;;31.70;39.25
5780;BME280;2916;49.798;10.022;2023-06-26T07:36:15;152044.75;;;31.61;39.89
5780;BME280;2916;49.798;10.022;2023-06-26T07:38:42;152012.06;;;31.47;41.01
5780;BME280;2916;49.798;10.022;2023-06-26T07:41:09;151862.53;;;30.87;41.14
5780;BME280;2916;49.798;10.022;2023-06-26T07:43:37;152194.31;;;32.21;40.52
5780;BME280;2916;49.798;10.022;2023-06-26T07:46:05;152325.13;;;32.74;39.45
5780;BME280;2916;49.798;10.022;2023-06-26T07:48:32;152499.97;;;33.45;38.74
5780;BME280;2916;49.798;10.022;2023-06-26T07:50:59;152391.81;;;33.02;39.44
5780;BME280;2916;49.798;10.022;2023-06-26T07:53:26;152561.59;;;33.70;38.13
5780;BME280;2916;49.798;10.022;2023-06-26T07:55:53;152406.88;;;33.08;39.49
5780;BME280;2916;49.798;10.022;2023-06-26T07:58:20;152435.78;;;33.19;37.93
5780;BME280;2916;49.798;10.022;2023-06-26T08:00:49;152074.91;;;31.73;40.73
5780;BME280;2916;49.798;10.022;2023-06-26T08:03:16;151789.63;;;30.57;42.47
5780;BME280;2916;49.798;10.022;2023-06-26T08:05:43;152136.50;;;31.98;40.63
5780;BME280;2916;49.798;10.022;2023-06-26T08:08:10;151903.97;;;31.03;41.78
5780;BME280;2916;49.798;10.022;2023-06-26T08:10:38;151986.94;;;31.37;40.44
5780;BME280;2916;49.798;10.022;2023-06-26T08:13:05;151892.69;;;30.99;42.39
5780;BME280;2916;49.798;10.022;2023-06-26T08:15:32;152128.97;;;31.95;41.42
5780;BME280;2916;49.798;10.022;2023-06-26T08:18:00;152438.28;;;33.20;39.15
5780;BME280;2916;49.798;10.022;2023-06-26T08:20:28;152386.75;;;32.99;39.76
5780;BME280;2916;49.798;10.022;2023-06-26T08:22:55;152589.28;;;33.82;39.20
5780;BME280;2916;49.798;10.022;2023-06-26T08:25:22;152279.84;;;32.56;38.83
5780;BME280;2916;49.798;10.022;2023-06-26T08:27:49;152488.63;;;33.41;38.90
5780;BME280;2916;49.798;10.022;2023-06-26T08:30:18;152082.47;;;31.76;39.52
5780;BME280;2916;49.798;10.022;2023-06-26T08:32:45;152144.06;;;32.01;40.79
5780;BME280;2916;49.798;10.022;2023-06-26T08:35:14;152216.97;;;32.31;39.76
5780;BME280;2916;49.798;10.022;2023-06-26T08:37:42;152012.06;;;31.47;38.87
5780;BME280;2916;49.798;10.022;2023-06-26T08:40:10;152263.50;;;32.49;38.54
5780;BME280;2916;49.798;10.022;2023-06-26T08:42:37;152351.47;;;32.85;38.46
5780;BME280;2916;49.798;10.022;2023-06-26T08:45:06;152726.41;;;34.37;37.27
5780;BME280;2916;49.798;10.022;2023-06-26T08:47:35;152828.41;;;34.79;36.21
5780;BME280;2916;49.798;10.022;2023-06-26T08:50:08;152506.25;;;33.48;36.42
5780;BME280;2916;49.798;10.022;2023-06-26T08:52:43;152496.13;;;33.44;37.25
5780;BME280;2916;49.798;10.022;2023-06-26T08:55:15;152385.50;;;32.99;37.17
5780;BME280;2916;49.798;10.022;2023-06-26T08:57:43;152501.22;;;33.46;36.66
5780;BME280;2916;49.798;10.022;2023-06-26T09:00:12;152312.50;;;32.69;38.56
5780;BME280;2916;49.798;10.022;2023-06-26T09:02:41;152830.91;;;34.80;36.42
5780;BME280;2916;49.798;10.022;2023-06-26T09:05:08;152657.25;;;34.09;37.70
5780;BME280;2916;49.798;10.022;2023-06-26T09:07:36;152810.78;;;34.72;34.98
5780;BME280;2916;49.798;10.022;2023-06-26T09:10:05;152939.16;;;35.24;35.84
5780;BME280;2916;49.798;10.022;2023-06-26T09:12:33;152984.50;;;35.42;34.36
5780;BME280;2916;49.798;10.022;2023-06-26T09:15:01;152878.78;;;34.99;34.98
5780;BME280;2916;49.798;10.022;2023-06-26T09:17:30;152965.63;;;35.34;33.91
5780;BME280;2916;49.798;10.022;2023-06-26T09:19:58;152752.84;;;34.48;33.67
5780;BME280;2916;49.798;10.022;2023-06-26T09:22:26;152571.66;;;33.75;35.84
5780;BME280;2916;49.798;10.022;2023-06-26T09:24:54;152570.41;;;33.74;35.58
5780;BME280;2916;49.798;10.022;2023-06-26T09:27:23;152574.16;;;33.76;35.70
5780;BME280;2916;49.798;10.022;2023-06-26T09:29:50;152827.16;;;34.78;35.33
5780;BME280;2916;49.798;10.022;2023-06-26T09:32:18;152654.72;;;34.08;34.58
5780;BME280;2916;49.798;10.022;2023-06-26T09:34:45;152898.91;;;35.07;34.37
5780;BME280;2916;49.798;10.022;2023-06-26T09:37:13;152808.28;;;34.71;33.57
5780;BME280;2916;49.798;10.022;2023-06-26T09:39:40;152880.03;;;35.00;32.97
5780;BME280;2916;49.798;10.022;2023-06-26T09:42:09;153087.72;;;35.84;32.38
5780;BME280;2916;49.798;10.022;2023-06-26T09:44:44;153251.50;;;36.50;31.69
5780;BME280;2916;49.798;10.022;2023-06-26T09:47:12;153158.31;;;36.12;30.34
5780;BME280;2916;49.798;10.022;2023-06-26T09:49:42;153272.94;;;36.59;30.99
5780;BME280;2916;49.798;10.022;2023-06-26T09:52:09;153401.44;;;37.11;30.58
5780;BME280;2916;49.798;10.022;2023-06-26T09:54:36;153080.22;;;35.81;29.74
5780;BME280;2916;49.798;10.022;2023-06-26T09:57:11;152717.59;;;34.34;32.24
5780;BME280;2916;49.798;10.022;2023-06-26T09:59:43;153087.72;;;35.84;31.40
5780;BME280;2916;49.798;10.022;2023-06-26T10:02:11;152883.78;;;35.01;30.00
5780;BME280;2916;49.798;10.022;2023-06-26T10:04:39;153196.09;;;36.28;31.51
5780;BME280;2916;49.798;10.022;2023-06-26T10:07:11;153361.16;;;36.95;31.05
5780;BME280;2916;49.798;10.022;2023-06-26T10:09:44;153427.88;;;37.22;27.82
5780;BME280;2916;49.798;10.022;2023-06-26T10:12:19;153448.06;;;37.30;27.89
5780;BME280;2916;49.798;10.022;2023-06-26T10:14:49;153621.97;;;38.00;27.90
5780;BME280;2916;49.798;10.022;2023-06-26T10:17:19;153513.59;;;37.56;29.45
5780;BME280;2916;49.798;10.022;2023-06-26T10:19:48;153495.94;;;37.49;28.44
5780;BME280;2916;49.798;10.022;2023-06-26T10:22:20;153390.13;;;37.06;29.20
5780;BME280;2916;49.798;10.022;2023-06-26T10:24:50;153293.09;;;36.67;28.83
5780;BME280;2916;49.798;10.022;2023-06-26T10:27:20;153009.69;;;35.52;30.03
5780;BME280;2916;49.798;10.022;2023-06-26T10:29:53;152945.47;;;35.26;29.97
5780;BME280;2916;49.798;10.022;2023-06-26T10:32:25;153092.78;;;35.86;30.88
5780;BME280;2916;49.798;10.022;2023-06-26T10:34:55;153003.44;;;35.50;29.24
5780;BME280;2916;49.798;10.022;2023-06-26T10:37:41;153332.13;;;36.83;29.85
5780;BME280;2916;49.798;10.022;2023-06-26T10:40:09;153427.88;;;37.22;29.32
5780;BME280;2916;49.798;10.022;2023-06-26T10:42:38;153376.25;;;37.01;29.45
5780;BME280;2916;49.798;10.022;2023-06-26T10:45:15;153401.44;;;37.11;28.46
5780;BME280;2916;49.798;10.022;2023-06-26T10:47:46;153407.72;;;37.14;28.46
5780;BME280;2916;49.798;10.022;2023-06-26T10:50:23;153170.91;;;36.18;29.65
5780;BME280;2916;49.798;10.022;2023-06-26T10:53:12;153291.81;;;36.67;29.75
5780;BME280;2916;49.798;10.022;2023-06-26T10:55:51;153368.69;;;36.98;29.96
5780;BME280;2916;49.798;10.022;2023-06-26T10:58:32;153414.03;;;37.16;31.31
5780;BME280;2916;49.798;10.022;2023-06-26T11:01:19;153440.50;;;37.27;30.57
5780;BME280;2916;49.798;10.022;2023-06-26T11:03:49;153445.50;;;37.29;29.97
5780;BME280;2916;49.798;10.022;2023-06-26T11:06:20;153483.34;;;37.44;29.97
5780;BME280;2916;49.798;10.022;2023-06-26T11:08:49;153555.19;;;37.73;30.80
5780;BME280;2916;49.798;10.022;2023-06-26T11:11:17;153487.16;;;37.46;29.63
5780;BME280;2916;49.798;10.022;2023-06-26T11:13:46;153565.28;;;37.77;30.78
5780;BME280;2916;49.798;10.022;2023-06-26T11:16:14;153475.78;;;37.41;30.35
5780;BME280;2916;49.798;10.022;2023-06-26T11:18:45;153488.41;;;37.46;30.91
5780;BME280;2916;49.798;10.022;2023-06-26T11:21:13;153440.50;;;37.27;29.89
5780;BME280;2916;49.798;10.022;2023-06-26T11:23:41;153508.56;;;37.54;30.94
5780;BME280;2916;49.798;10.022;2023-06-26T11:26:15;153280.47;;;36.62;31.33
5780;BME280;2916;49.798;10.022;2023-06-26T11:28:50;153415.28;;;37.17;32.65
5780;BME280;2916;49.798;10.022;2023-06-26T11:31:28;153488.41;;;37.46;30.92
5780;BME280;2916;49.798;10.022;2023-06-26T11:33:58;153377.50;;;37.01;31.88
5780;BME280;2916;49.798;10.022;2023-06-26T11:36:28;153249.00;;;36.49;33.61
5780;BME280;2916;49.798;10.022;2023-06-26T11:38:56;153251.50;;;36.50;32.05
5780;BME280;2916;49.798;10.022;2023-06-26T11:41:25;153230.06;;;36.42;32.82
5780;BME280;2916;49.798;10.022;2023-06-26T11:43:52;153119.25;;;35.97;34.08
5780;BME280;2916;49.798;10.022;2023-06-26T11:46:21;153172.16;;;36.18;32.53
5780;BME280;2916;49.798;10.022;2023-06-26T11:48:48;153115.44;;;35.95;34.06
5780;BME280;2916;49.798;10.022;2023-06-26T11:51:17;153125.56;;;35.99;33.74
5780;BME280;2916;49.798;10.022;2023-06-26T11:53:46;153085.22;;;35.83;32.88
5780;BME280;2916;49.798;10.022;2023-06-26T11:56:15;153095.28;;;35.87;33.53
5780;BME280;2916;49.798;10.022;2023-06-26T11:59:00;153192.28;;;36.26;34.49
5780;BME280;2916;49.798;10.022;2023-06-26T12:01:32;153138.19;;;36.04;33.34
5780;BME280;2916;49.798;10.022;2023-06-26T12:04:02;153110.44;;;35.93;33.92
5780;BME280;2916;49.798;10.022;2023-06-26T12:06:34;153090.28;;;35.85;34.08
5780;BME280;2916;49.798;10.022;2023-06-26T12:09:04;152956.81;;;35.31;34.26
5780;BME280;2916;49.798;10.022;2023-06-26T12:11:34;153018.50;;;35.56;33.37
5780;BME280;2916;49.798;10.022;2023-06-26T12:14:02;153036.13;;;35.63;35.27
5780;BME280;2916;49.798;10.022;2023-06-26T12:16:30;153047.47;;;35.68;33.79
5780;BME280;2916;49.798;10.022;2023-06-26T12:18:59;153017.25;;;35.55;34.10
5780;BME280;2916;49.798;10.022;2023-06-26T12:21:46;153067.59;;;35.76;34.25
5780;BME280;2916;49.798;10.022;2023-06-26T12:24:17;153021.06;;;35.57;34.17
5780;BME280;2916;49.798;10.022;2023-06-26T12:26:46;152969.38;;;35.36;34.46
5780;BME280;2916;49.798;10.022;2023-06-26T12:29:16;153027.31;;;35.59;34.23
5780;BME280;2916;49.798;10.022;2023-06-26T12:31:46;153037.41;;;35.63;34.80
5780;BME280;2916;49.798;10.022;2023-06-26T12:34:18;152981.94;;;35.41;34.42
5780;BME280;2916;49.798;10.022;2023-06-26T12:36:49;152951.75;;;35.29;34.34
5780;BME280;2916;49.798;10.022;2023-06-26T12:39:18;152994.56;;;35.46;34.75
5780;BME280;2916;49.798;10.022;2023-06-26T12:41:48;152956.81;;;35.31;34.52
5780;BME280;2916;49.798;10.022;2023-06-26T12:44:25;152903.91;;;35.09;34.70
5780;BME280;2916;49.798;10.022;2023-06-26T12:46:56;152796.91;;;34.66;35.49
5780;BME280;2916;49.798;10.022;2023-06-26T12:49:31;152980.69;;;35.40;36.22
5780;BME280;2916;49.798;10.022;2023-06-26T12:52:03;152810.78;;;34.72;35.11
5780;BME280;2916;49.798;10.022;2023-06-26T12:54:30;152669.81;;;34.14;36.75
5780;BME280;2916;49.798;10.022;2023-06-26T12:56:58;152634.63;;;34.00;36.89
5780;BME280;2916;49.798;10.022;2023-06-26T12:59:25;152698.75;;;34.26;36.94
5780;BME280;2916;49.798;10.022;2023-06-26T13:01:52;152776.78;;;34.58;36.56
5780;BME280;2916;49.798;10.022;2023-06-26T13:04:20;152818.34;;;34.75;36.84
5780;BME280;2916;49.798;10.022;2023-06-26T13:06:47;152814.53;;;34.73;36.72
5780;BME280;2916;49.798;10.022;2023-06-26T13:09:16;152805.72;;;34.69;36.69